createdAt,value
2019-02-08T00:00:03.918Z,48.50
2019-02-08T00:02:44.885Z,48.50
2019-02-08T00:05:25.580Z,48.60
2019-02-08T00:08:05.854Z,48.60
2019-02-08T00:10:46.853Z,48.80
2019-02-08T00:13:27.997Z,48.80
2019-02-08T00:19:17.677Z,48.90
2019-02-08T00:21:58.383Z,49.00
2019-02-08T00:24:39.110Z,49.10
2019-02-08T00:27:19.311Z,48.60
2019-02-08T00:29:59.567Z,49.20
2019-02-08T00:33:00.040Z,49.20
2019-02-08T00:35:40.192Z,49.10
2019-02-08T00:38:21.274Z,48.80
2019-02-08T00:41:02.274Z,48.80
2019-02-08T00:43:43.204Z,48.70
2019-02-08T00:46:24.186Z,49.10
2019-02-08T00:49:04.592Z,49.10
2019-02-08T00:51:45.433Z,48.90
2019-02-08T00:54:26.017Z,48.90
2019-02-08T00:57:06.176Z,48.90
2019-02-08T00:59:46.445Z,48.50
2019-02-08T01:02:27.622Z,48.90
2019-02-08T01:05:08.152Z,48.90
2019-02-08T01:07:49.274Z,48.70
2019-02-08T01:10:30.097Z,48.70
2019-02-08T01:13:10.960Z,48.80
2019-02-08T01:15:51.502Z,48.50
2019-02-08T01:18:32.608Z,48.50
2019-02-08T01:21:13.500Z,48.60
2019-02-08T01:23:54.287Z,48.50
2019-02-08T01:26:34.906Z,48.70
2019-02-08T01:29:15.783Z,48.80
2019-02-08T01:31:56.093Z,48.60
2019-02-08T01:34:37.215Z,48.40
2019-02-08T01:37:18.003Z,48.80
2019-02-08T01:39:58.581Z,48.60
2019-02-08T01:42:39.697Z,48.50
2019-02-08T01:45:20.773Z,48.50
2019-02-08T01:48:01.660Z,48.40
2019-02-08T01:50:42.632Z,48.40
2019-02-08T01:53:23.180Z,48.30
2019-02-08T01:56:03.940Z,48.30
2019-02-08T01:58:44.216Z,48.40
2019-02-08T02:01:25.215Z,48.40
2019-02-08T02:04:05.733Z,48.50
2019-02-08T02:06:46.052Z,48.30
2019-02-08T02:09:26.228Z,48.40
2019-02-08T02:12:07.330Z,48.30
2019-02-08T02:14:47.940Z,48.30
2019-02-08T02:17:28.649Z,48.30
2019-02-08T02:20:09.556Z,48.30
2019-02-08T02:22:50.620Z,48.40
2019-02-08T02:25:31.586Z,48.30
2019-02-08T02:28:12.312Z,48.40
2019-02-08T02:30:52.588Z,48.30
2019-02-08T02:33:33.636Z,48.40
2019-02-08T02:36:14.817Z,48.50
2019-02-08T02:38:56.040Z,48.40
2019-02-08T02:41:36.748Z,48.60
2019-02-08T02:50:44.307Z,48.50
2019-02-08T02:53:24.845Z,48.30
2019-02-08T02:59:11.224Z,48.10
2019-02-08T03:01:51.989Z,48.10
2019-02-08T03:04:33.309Z,47.90
2019-02-08T03:07:14.252Z,48.00
2019-02-08T03:09:55.236Z,47.90
2019-02-08T03:12:36.067Z,47.80
2019-02-08T03:15:17.105Z,47.80
2019-02-08T03:17:57.827Z,47.60
2019-02-08T03:20:39.277Z,47.80
2019-02-08T03:23:20.150Z,47.80
2019-02-08T03:26:01.109Z,47.90
2019-02-08T03:28:42.435Z,47.90
2019-02-08T03:31:23.302Z,47.90
2019-02-08T03:34:04.321Z,48.00
2019-02-08T03:36:45.755Z,47.90
2019-02-08T03:39:26.385Z,48.00
2019-02-08T03:42:07.217Z,47.90
2019-02-08T03:44:47.474Z,48.00
2019-02-08T03:47:28.608Z,48.10
2019-02-08T03:50:09.453Z,48.10
2019-02-08T03:52:50.570Z,48.10
2019-02-08T03:55:31.447Z,48.10
2019-02-08T03:58:12.363Z,48.10
2019-02-08T04:00:57.126Z,48.00
2019-02-08T04:03:37.679Z,48.10
2019-02-08T04:06:18.853Z,48.00
2019-02-08T04:08:59.872Z,48.00
2019-02-08T04:11:40.989Z,48.00
2019-02-08T04:14:21.766Z,48.10
2019-02-08T04:17:02.428Z,48.10
2019-02-08T04:19:43.446Z,48.10
2019-02-08T04:22:24.265Z,48.10
2019-02-08T04:25:05.420Z,48.00
2019-02-08T04:27:46.028Z,47.50
2019-02-08T04:30:27.029Z,47.80
2019-02-08T04:33:07.785Z,48.00
2019-02-08T04:35:48.722Z,48.00
2019-02-08T04:38:29.797Z,48.00
2019-02-08T04:41:10.876Z,47.90
2019-02-08T04:43:51.960Z,47.90
2019-02-08T04:46:32.709Z,47.90
2019-02-08T04:49:12.924Z,47.90
2019-02-08T04:51:53.986Z,47.80
2019-02-08T04:54:38.481Z,48.00
2019-02-08T04:57:17.764Z,48.00
2019-02-08T04:59:58.708Z,48.00
2019-02-08T05:02:39.761Z,48.00
2019-02-08T05:05:20.682Z,47.90
2019-02-08T05:11:06.804Z,47.60
2019-02-08T05:13:47.771Z,48.10
2019-02-08T05:16:28.442Z,48.00
2019-02-08T05:19:09.476Z,48.10
2019-02-08T05:21:50.087Z,48.00
2019-02-08T05:24:31.022Z,48.00
2019-02-08T05:27:12.195Z,48.10
2019-02-08T05:29:53.006Z,47.90
2019-02-08T05:32:33.917Z,48.00
2019-02-08T05:35:14.894Z,48.00
2019-02-08T05:37:55.496Z,48.00
2019-02-08T05:40:36.661Z,48.00
2019-02-08T05:43:17.443Z,48.00
2019-02-08T05:45:58.528Z,48.00
2019-02-08T05:48:39.632Z,48.40
2019-02-08T05:51:20.508Z,47.80
2019-02-08T05:54:01.488Z,48.00
2019-02-08T05:56:42.557Z,47.90
2019-02-08T05:59:23.126Z,47.80
2019-02-08T06:02:03.722Z,47.80
2019-02-08T06:04:44.607Z,47.80
2019-02-08T06:07:25.512Z,47.80
2019-02-08T06:10:06.622Z,47.80
2019-02-08T06:12:47.772Z,47.80
2019-02-08T06:15:28.614Z,47.60
2019-02-08T06:18:09.045Z,47.60
2019-02-08T06:20:50.045Z,47.60
2019-02-08T06:23:31.080Z,47.60
2019-02-08T06:26:11.966Z,47.40
2019-02-08T06:31:58.077Z,47.20
2019-02-08T06:34:38.925Z,47.70
2019-02-08T06:37:20.108Z,47.70
2019-02-08T06:40:01.245Z,47.60
2019-02-08T06:42:42.428Z,47.60
2019-02-08T06:45:23.258Z,47.50
2019-02-08T06:48:03.401Z,47.50
2019-02-08T06:50:44.494Z,47.50
2019-02-08T06:53:25.421Z,47.50
2019-02-08T06:56:07.094Z,47.50
2019-02-08T06:58:49.316Z,47.00
2019-02-08T07:01:32.033Z,46.90
2019-02-08T07:07:09.121Z,47.30
2019-02-08T07:09:54.414Z,47.30
2019-02-08T07:12:39.752Z,47.10
2019-02-08T07:15:39.607Z,47.30
2019-02-08T07:18:25.187Z,47.30
2019-02-08T07:21:25.158Z,47.30
2019-02-08T07:24:10.194Z,47.20
2019-02-08T07:26:52.176Z,47.30
2019-02-08T07:29:34.104Z,47.30
2019-02-08T07:35:12.950Z,47.30
2019-02-08T07:37:55.318Z,47.00
2019-02-08T07:40:54.788Z,47.40
2019-02-08T07:43:54.768Z,47.20
2019-02-08T07:46:39.652Z,47.40
2019-02-08T07:49:22.441Z,46.90
2019-02-08T07:52:07.242Z,47.40
2019-02-08T07:57:57.647Z,47.50
2019-02-08T08:00:57.980Z,47.50
2019-02-08T08:06:34.918Z,47.50
2019-02-08T08:12:28.870Z,47.30
2019-02-08T08:15:13.700Z,47.50
2019-02-08T08:20:49.429Z,47.00
2019-02-08T08:26:44.280Z,47.50
2019-02-08T08:29:28.956Z,47.40
2019-02-08T08:32:11.373Z,47.20
2019-02-08T08:34:51.594Z,47.00
2019-02-08T08:37:32.604Z,47.30
2019-02-08T08:40:13.696Z,47.10
2019-02-08T08:42:54.536Z,47.30
2019-02-08T08:45:34.784Z,47.20
2019-02-08T08:48:15.847Z,47.20
2019-02-08T08:50:57.012Z,47.20
2019-02-08T09:00:01.576Z,47.10
2019-02-08T09:02:42.340Z,47.20
2019-02-08T09:05:23.340Z,47.10
2019-02-08T09:11:09.845Z,47.10
2019-02-08T09:13:50.616Z,47.10
2019-02-08T09:16:31.337Z,46.80
2019-02-08T09:25:24.820Z,47.20
2019-02-08T09:31:24.382Z,47.20
2019-02-08T09:34:05.568Z,47.30
2019-02-08T09:36:47.715Z,47.30
2019-02-08T09:39:28.872Z,47.30
2019-02-08T09:42:09.069Z,47.20
2019-02-08T09:47:58.084Z,47.20
2019-02-08T09:50:39.980Z,47.30
2019-02-08T09:56:28.670Z,47.40
2019-02-08T09:59:09.672Z,47.30
2019-02-08T10:01:49.957Z,47.40
2019-02-08T10:04:31.080Z,47.50
2019-02-08T10:10:20.844Z,47.40
2019-02-08T10:13:01.706Z,47.30
2019-02-08T10:15:42.173Z,47.20
2019-02-08T10:18:42.209Z,47.10
2019-02-08T10:21:23.244Z,47.10
2019-02-08T10:24:03.522Z,47.20
2019-02-08T10:26:44.352Z,47.20
2019-02-08T10:29:25.331Z,47.10
2019-02-08T10:32:06.452Z,47.20
2019-02-08T10:34:47.240Z,47.20
2019-02-08T10:37:28.110Z,47.20
2019-02-08T10:43:16.252Z,47.10
2019-02-08T10:45:56.520Z,47.00
2019-02-08T10:48:37.581Z,47.10
2019-02-08T10:51:18.311Z,47.10
2019-02-08T10:53:59.409Z,47.00
2019-02-08T10:56:40.260Z,47.20
2019-02-08T11:02:29.584Z,47.30
2019-02-08T11:05:11.468Z,47.10
2019-02-08T11:10:55.894Z,47.30
2019-02-08T11:13:36.119Z,47.00
2019-02-08T11:19:12.473Z,46.80
2019-02-08T11:21:52.685Z,46.70
2019-02-08T11:24:33.548Z,46.50
2019-02-08T11:30:32.880Z,45.90
2019-02-08T11:33:32.201Z,46.20
2019-02-08T11:36:12.590Z,46.00
2019-02-08T11:38:53.462Z,46.20
2019-02-08T11:41:33.727Z,46.10
2019-02-08T11:44:14.268Z,46.00
2019-02-08T11:46:55.375Z,46.00
2019-02-08T11:49:36.268Z,45.90
2019-02-08T11:52:16.813Z,45.90
2019-02-08T11:54:57.941Z,45.80
2019-02-08T11:57:38.595Z,45.70
2019-02-08T12:00:21.329Z,45.70
2019-02-08T12:06:21.720Z,45.60
2019-02-08T12:09:02.919Z,45.50
2019-02-08T12:12:02.656Z,45.50
2019-02-08T12:14:42.909Z,45.50
2019-02-08T12:17:43.326Z,45.40
2019-02-08T12:20:43.098Z,45.50
2019-02-08T12:23:24.040Z,45.30
2019-02-08T12:26:24.197Z,45.10
2019-02-08T12:29:04.688Z,45.40
2019-02-08T12:31:45.703Z,45.40
2019-02-08T12:34:26.603Z,45.40
2019-02-08T12:40:31.031Z,45.40
2019-02-08T12:43:11.663Z,45.20
2019-02-08T12:55:11.138Z,45.00
2019-02-08T12:57:52.175Z,45.40
2019-02-08T13:00:33.032Z,45.60
2019-02-08T13:06:33.568Z,45.50
2019-02-08T13:09:14.396Z,45.10
2019-02-08T13:11:53.046Z,45.70
2019-02-08T13:14:40.803Z,45.70
2019-02-08T13:20:38.092Z,46.10
2019-02-08T13:23:26.122Z,46.10
2019-02-08T13:26:13.781Z,46.60
2019-02-08T13:29:01.460Z,46.50
2019-02-08T13:31:49.131Z,46.50
2019-02-08T13:34:36.826Z,47.00
2019-02-08T13:40:31.302Z,47.50
2019-02-08T13:43:18.953Z,47.50
2019-02-08T13:46:06.633Z,48.10
2019-02-08T13:48:54.302Z,48.20
2019-02-08T13:51:41.979Z,48.30
2019-02-08T13:54:29.628Z,48.40
2019-02-08T13:57:17.571Z,48.60
2019-02-08T14:00:26.115Z,48.80
2019-02-08T14:03:13.784Z,48.80
2019-02-08T14:08:54.824Z,49.10
2019-02-08T14:11:35.464Z,49.30
2019-02-08T14:14:16.632Z,49.60
2019-02-08T14:16:57.595Z,49.50
2019-02-08T14:19:38.344Z,49.60
2019-02-08T14:22:19.200Z,49.70
2019-02-08T14:28:08.894Z,49.80
2019-02-08T14:30:49.713Z,49.90
2019-02-08T14:33:30.380Z,49.80
2019-02-08T14:36:11.100Z,50.20
2019-02-08T14:38:51.324Z,50.00
2019-02-08T14:41:32.006Z,50.00
2019-02-08T14:44:13.164Z,50.00
2019-02-08T14:46:53.996Z,50.00
2019-02-08T14:49:35.049Z,49.90
2019-02-08T14:52:15.942Z,49.80
2019-02-08T14:54:56.963Z,49.60
2019-02-08T14:57:37.976Z,49.60
2019-02-08T15:03:24.281Z,50.30
2019-02-08T15:09:23.977Z,50.80
2019-02-08T15:12:04.902Z,50.60
2019-02-08T15:14:46.019Z,50.80
2019-02-08T15:17:26.605Z,50.70
2019-02-08T15:20:07.228Z,50.60
2019-02-08T15:23:06.872Z,50.50
2019-02-08T15:29:06.903Z,50.40
2019-02-08T15:31:47.513Z,50.50
2019-02-08T15:34:28.167Z,50.60
2019-02-08T15:37:09.428Z,50.90
2019-02-08T15:39:50.400Z,51.00
2019-02-08T15:45:57.950Z,50.90
2019-02-08T15:48:38.442Z,51.10
2019-02-08T15:57:45.593Z,52.10
2019-02-08T16:00:26.289Z,52.40
2019-02-08T16:03:07.052Z,52.30
2019-02-08T16:08:52.796Z,51.70
2019-02-08T16:11:33.908Z,51.50
2019-02-08T16:14:14.052Z,51.20
2019-02-08T16:20:13.036Z,52.00
2019-02-08T16:22:53.694Z,51.40
2019-02-08T16:25:33.962Z,51.50
2019-02-08T16:31:22.328Z,52.40
2019-02-08T16:34:00.972Z,51.70
2019-02-08T16:39:37.960Z,51.30
2019-02-08T16:42:25.632Z,51.10
2019-02-08T16:45:35.921Z,51.10
2019-02-08T16:51:12.975Z,51.50
2019-02-08T16:54:00.646Z,51.90
2019-02-08T16:56:48.321Z,51.70
2019-02-08T16:59:36.333Z,51.80
2019-02-08T17:02:24.000Z,52.30
2019-02-08T17:05:33.860Z,52.80
2019-02-08T17:11:20.769Z,52.90
2019-02-08T17:14:08.453Z,52.20
2019-02-08T17:16:56.459Z,52.50
2019-02-08T17:19:44.128Z,52.40
2019-02-08T17:22:32.076Z,52.60
2019-02-08T17:25:19.822Z,52.90
2019-02-08T17:31:07.410Z,52.50
2019-02-08T17:33:48.329Z,52.90
2019-02-08T17:39:47.325Z,53.40
2019-02-08T17:42:28.741Z,53.00
2019-02-08T17:45:09.766Z,53.60
2019-02-08T17:50:53.432Z,53.40
2019-02-08T17:56:39.720Z,53.60
2019-02-08T17:59:20.730Z,53.90
2019-02-08T18:02:01.508Z,53.30
2019-02-08T18:04:42.567Z,52.60
2019-02-08T18:07:23.457Z,52.40
2019-02-08T18:10:02.172Z,52.50
2019-02-08T18:12:49.964Z,52.50
2019-02-08T18:15:37.886Z,52.30
2019-02-08T18:18:25.574Z,52.20
2019-02-08T18:21:13.240Z,52.20
2019-02-08T18:24:00.988Z,51.90
2019-02-08T18:26:49.073Z,51.80
2019-02-08T18:29:36.792Z,51.70
2019-02-08T18:32:24.464Z,51.60
2019-02-08T18:35:12.426Z,51.20
2019-02-08T18:38:00.362Z,51.50
2019-02-08T18:40:48.058Z,51.40
2019-02-08T18:43:29.284Z,51.40
2019-02-08T18:46:09.483Z,51.00
2019-02-08T18:48:49.750Z,51.00
2019-02-08T18:51:30.905Z,50.90
2019-02-08T18:54:11.815Z,50.40
2019-02-08T18:56:52.644Z,50.50
2019-02-08T18:59:33.610Z,50.50
2019-02-08T19:02:15.279Z,50.30
2019-02-08T19:04:56.018Z,50.10
2019-02-08T19:07:37.304Z,49.90
2019-02-08T19:10:18.221Z,49.90
2019-02-08T19:12:59.842Z,49.30
2019-02-08T19:15:40.914Z,49.50
2019-02-08T19:18:21.854Z,49.40
2019-02-08T19:21:02.904Z,49.10
2019-02-08T19:23:43.351Z,49.00
2019-02-08T19:26:24.409Z,48.70
2019-02-08T19:29:05.368Z,48.60
2019-02-08T19:31:46.309Z,48.50
2019-02-08T19:34:27.057Z,48.40
2019-02-08T19:37:08.005Z,48.10
2019-02-08T19:39:48.633Z,47.90
2019-02-08T19:42:29.144Z,47.50
2019-02-08T19:45:10.400Z,47.40
2019-02-08T19:47:51.589Z,47.20
2019-02-08T19:50:32.496Z,47.10
2019-02-08T19:53:13.313Z,46.80
2019-02-08T19:55:54.395Z,46.60
2019-02-08T19:58:35.273Z,46.30
2019-02-08T20:01:16.458Z,46.00
2019-02-08T20:03:56.927Z,45.80
2019-02-08T20:06:37.684Z,45.70
2019-02-08T20:09:18.417Z,45.50
2019-02-08T20:11:59.476Z,45.20
2019-02-08T20:14:40.556Z,45.00
2019-02-08T20:17:21.745Z,44.70
2019-02-08T20:20:01.933Z,44.50
2019-02-08T20:22:42.408Z,44.10
2019-02-08T20:28:42.648Z,43.70
2019-02-08T20:31:23.161Z,43.50
2019-02-08T20:34:04.257Z,43.20
2019-02-08T20:36:45.255Z,43.00
2019-02-08T20:39:26.318Z,42.90
2019-02-08T20:42:07.335Z,42.60
2019-02-08T20:44:48.216Z,42.50
2019-02-08T20:47:29.197Z,41.80
2019-02-08T20:50:10.005Z,42.00
2019-02-08T20:52:50.807Z,41.70
2019-02-08T20:55:31.004Z,41.50
2019-02-08T20:58:12.139Z,41.20
2019-02-08T21:00:53.096Z,41.10
2019-02-08T21:03:34.196Z,40.90
2019-02-08T21:06:14.560Z,40.50
2019-02-08T21:08:55.885Z,40.20
2019-02-08T21:11:36.527Z,40.40
2019-02-08T21:14:17.417Z,40.30
2019-02-08T21:16:58.302Z,40.00
2019-02-08T21:19:39.267Z,39.90
2019-02-08T21:22:17.884Z,39.60
2019-02-08T21:25:07.515Z,39.40
2019-02-08T21:27:55.409Z,39.10
2019-02-08T21:30:43.068Z,39.00
2019-02-08T21:33:30.750Z,38.80
2019-02-08T21:36:18.417Z,38.60
2019-02-08T21:42:00.192Z,38.10
2019-02-08T21:44:48.128Z,37.80
2019-02-08T21:50:22.938Z,37.50
2019-02-08T21:53:03.693Z,37.20
2019-02-08T21:55:43.862Z,37.00
2019-02-08T21:58:24.620Z,36.80
2019-02-08T22:01:05.177Z,36.40
2019-02-08T22:03:45.796Z,36.40
2019-02-08T22:06:25.962Z,36.20
2019-02-08T22:09:06.677Z,36.00
2019-02-08T22:11:47.647Z,35.80
2019-02-08T22:14:28.745Z,35.50
2019-02-08T22:17:09.326Z,35.40
2019-02-08T22:19:50.458Z,35.30
2019-02-08T22:22:31.100Z,35.10
2019-02-08T22:25:12.213Z,34.80
2019-02-08T22:27:52.881Z,34.70
2019-02-08T22:30:33.613Z,34.40
2019-02-08T22:33:13.752Z,34.20
2019-02-08T22:35:54.597Z,34.10
2019-02-08T22:38:35.024Z,33.90
2019-02-08T22:41:15.936Z,33.50
2019-02-08T22:43:56.652Z,33.50
2019-02-08T22:46:37.528Z,33.10
2019-02-08T22:49:18.471Z,33.10
2019-02-08T22:51:59.128Z,32.90
2019-02-08T22:54:39.925Z,32.80
2019-02-08T22:57:20.599Z,32.70
2019-02-08T23:00:01.557Z,32.60
2019-02-08T23:02:42.657Z,32.40
2019-02-08T23:05:23.597Z,32.50
2019-02-08T23:08:04.890Z,32.40
2019-02-08T23:10:45.835Z,32.20
2019-02-08T23:13:26.451Z,32.00
2019-02-08T23:16:07.356Z,31.50
2019-02-08T23:18:47.549Z,31.90
2019-02-08T23:21:28.347Z,31.50
2019-02-08T23:24:09.426Z,31.80
2019-02-08T23:26:50.525Z,31.50
2019-02-08T23:29:31.256Z,31.40
2019-02-08T23:32:12.092Z,31.50
2019-02-08T23:34:52.680Z,31.40
2019-02-08T23:37:33.134Z,31.40
2019-02-08T23:40:13.821Z,31.30
2019-02-08T23:42:54.566Z,31.30
2019-02-08T23:45:35.240Z,31.30
2019-02-08T23:48:16.107Z,31.30
2019-02-08T23:50:56.927Z,31.40
2019-02-08T23:53:37.708Z,31.30
2019-02-08T23:56:18.847Z,31.30
2019-02-08T23:58:59.364Z,31.30
